createdAt,value
2022-10-22T00:00:53.103Z,76.02
2022-10-22T00:03:19.433Z,75.45
2022-10-22T00:05:45.799Z,78.53
2022-10-22T00:08:12.158Z,78.52
2022-10-22T00:10:38.525Z,79.53
2022-10-22T00:13:04.911Z,79.42
2022-10-22T00:15:31.248Z,77.97
2022-10-22T00:17:57.614Z,78.72
2022-10-22T00:20:23.967Z,80.55
2022-10-22T00:25:21.607Z,81.14
2022-10-22T00:27:47.989Z,81.53
2022-10-22T00:30:14.353Z,81.09
2022-10-22T00:32:40.793Z,80.32
2022-10-22T00:35:07.385Z,79.45
2022-10-22T00:37:33.747Z,78.48
2022-10-22T00:40:00.130Z,77.63
2022-10-22T00:42:26.474Z,77.44
2022-10-22T00:44:52.831Z,77.17
2022-10-22T00:47:19.159Z,76.59
2022-10-22T00:49:45.520Z,76.66
2022-10-22T00:52:11.858Z,76.57
2022-10-22T00:54:38.213Z,76.19
2022-10-22T00:57:04.597Z,75.54
2022-10-22T00:59:30.953Z,75.56
2022-10-22T01:01:57.329Z,75.64
2022-10-22T01:04:23.713Z,75.61
2022-10-22T01:06:50.059Z,75.80
2022-10-22T01:09:16.395Z,75.59
2022-10-22T01:11:42.746Z,77.49
2022-10-22T01:14:09.083Z,78.66
2022-10-22T01:16:35.453Z,78.21
2022-10-22T01:19:01.845Z,79.17
2022-10-22T01:21:28.200Z,78.53
2022-10-22T01:23:54.567Z,78.61
2022-10-22T01:26:21.261Z,79.22
2022-10-22T01:28:47.654Z,78.87
2022-10-22T01:31:14.017Z,79.22
2022-10-22T01:33:40.385Z,79.67
2022-10-22T01:36:06.730Z,79.41
2022-10-22T01:38:33.105Z,79.78
2022-10-22T01:40:59.482Z,80.01
2022-10-22T01:43:25.866Z,79.31
2022-10-22T01:45:52.230Z,78.78
2022-10-22T01:48:18.581Z,78.99
2022-10-22T01:50:44.934Z,78.40
2022-10-22T01:53:11.326Z,78.43
2022-10-22T01:55:37.692Z,78.14
2022-10-22T01:58:04.153Z,78.23
2022-10-22T02:00:30.590Z,78.15
2022-10-22T02:02:56.984Z,77.94
2022-10-22T02:05:23.353Z,78.43
2022-10-22T02:07:49.729Z,78.50
2022-10-22T02:10:16.085Z,79.29
2022-10-22T02:12:42.842Z,79.68
2022-10-22T02:15:09.455Z,79.07
2022-10-22T02:17:35.833Z,78.98
2022-10-22T02:20:02.201Z,79.67
2022-10-22T02:22:28.564Z,79.42
2022-10-22T02:24:54.912Z,80.79
2022-10-22T02:27:25.822Z,82.51
2022-10-22T02:29:53.402Z,83.00
2022-10-22T02:32:19.750Z,84.39
2022-10-22T02:34:46.109Z,84.51
2022-10-22T02:37:12.852Z,85.13
2022-10-22T02:39:39.225Z,85.54
2022-10-22T02:42:05.589Z,85.72
2022-10-22T02:44:31.973Z,85.13
2022-10-22T02:46:58.344Z,84.99
2022-10-22T02:49:24.707Z,84.78
2022-10-22T02:51:51.080Z,84.49
2022-10-22T02:54:17.442Z,84.44
2022-10-22T02:56:43.779Z,84.46
2022-10-22T02:59:10.157Z,83.70
2022-10-22T03:01:36.550Z,83.95
2022-10-22T03:04:02.907Z,83.76
2022-10-22T03:06:29.283Z,84.21
2022-10-22T03:08:55.693Z,84.25
2022-10-22T03:11:22.138Z,84.51
2022-10-22T03:13:48.492Z,85.55
2022-10-22T03:16:14.847Z,85.32
2022-10-22T03:18:41.198Z,86.43
2022-10-22T03:21:07.568Z,86.27
2022-10-22T03:23:33.921Z,86.71
2022-10-22T03:28:31.552Z,88.04
2022-10-22T03:30:57.921Z,87.41
2022-10-22T03:33:24.282Z,87.07
2022-10-22T03:35:50.638Z,86.89
2022-10-22T03:38:16.991Z,86.09
2022-10-22T03:40:43.361Z,85.87
2022-10-22T03:43:09.719Z,85.08
2022-10-22T03:45:36.059Z,85.93
2022-10-22T03:48:02.431Z,86.55
2022-10-22T03:50:28.796Z,86.88
2022-10-22T03:52:55.221Z,86.80
2022-10-22T03:55:21.577Z,87.29
2022-10-22T03:57:47.933Z,86.41
2022-10-22T04:00:14.297Z,87.29
2022-10-22T04:02:40.663Z,87.00
2022-10-22T04:05:07.069Z,86.08
2022-10-22T04:07:33.511Z,86.71
2022-10-22T04:09:59.870Z,87.50
2022-10-22T04:12:26.214Z,88.15
2022-10-22T04:14:52.567Z,87.38
2022-10-22T04:17:18.919Z,86.80
2022-10-22T04:19:45.294Z,85.26
2022-10-22T04:22:11.645Z,85.41
2022-10-22T04:24:38.063Z,84.61
2022-10-22T04:27:04.494Z,84.43
2022-10-22T04:29:30.855Z,83.95
2022-10-22T04:31:57.225Z,84.21
2022-10-22T04:34:23.576Z,83.86
2022-10-22T04:36:49.935Z,84.68
2022-10-22T04:39:16.297Z,84.96
2022-10-22T04:41:42.664Z,85.28
2022-10-22T04:44:12.326Z,85.14
2022-10-22T04:46:42.579Z,84.97
2022-10-22T04:49:08.939Z,84.25
2022-10-22T04:51:35.293Z,83.26
2022-10-22T04:54:01.667Z,82.99
2022-10-22T04:56:28.001Z,82.71
2022-10-22T04:58:54.358Z,82.99
2022-10-22T05:01:20.768Z,83.19
2022-10-22T05:03:47.175Z,82.99
2022-10-22T05:08:44.842Z,82.80
2022-10-22T05:11:11.282Z,83.05
2022-10-22T05:13:37.621Z,83.35
2022-10-22T05:16:03.993Z,83.01
2022-10-22T05:18:30.329Z,83.20
2022-10-22T05:20:56.671Z,83.34
2022-10-22T05:23:23.043Z,83.40
2022-10-22T05:25:49.396Z,83.04
2022-10-22T05:28:15.760Z,83.39
2022-10-22T05:30:42.095Z,83.32
2022-10-22T05:33:08.456Z,82.27
2022-10-22T05:35:34.822Z,81.63
2022-10-22T05:38:01.178Z,82.22
2022-10-22T05:40:31.119Z,81.93
2022-10-22T05:42:57.636Z,81.77
2022-10-22T05:45:24.010Z,81.55
2022-10-22T05:47:50.368Z,81.60
2022-10-22T05:50:16.741Z,81.21
2022-10-22T05:52:43.197Z,81.68
2022-10-22T05:55:09.787Z,79.97
2022-10-22T05:57:36.123Z,80.79
2022-10-22T06:00:02.481Z,80.47
2022-10-22T06:02:28.944Z,79.93
2022-10-22T06:04:55.344Z,79.49
2022-10-22T06:07:21.705Z,79.03
2022-10-22T06:09:48.066Z,79.21
2022-10-22T06:12:14.436Z,79.20
2022-10-22T06:14:40.788Z,79.72
2022-10-22T06:17:07.219Z,79.87
2022-10-22T06:19:33.561Z,80.59
2022-10-22T06:21:59.931Z,80.21
2022-10-22T06:24:26.286Z,80.29
2022-10-22T06:26:52.653Z,79.89
2022-10-22T06:29:18.996Z,80.28
2022-10-22T06:31:45.389Z,79.42
2022-10-22T06:34:11.756Z,79.42
2022-10-22T06:36:38.183Z,79.31
2022-10-22T06:39:04.578Z,79.49
2022-10-22T06:41:30.932Z,77.10
2022-10-22T06:43:57.460Z,77.38
2022-10-22T06:46:24.128Z,76.36
2022-10-22T06:48:50.487Z,76.78
2022-10-22T06:51:16.862Z,78.48
2022-10-22T06:53:43.238Z,77.15
2022-10-22T06:56:09.596Z,74.76
2022-10-22T06:58:35.978Z,74.33
2022-10-22T07:01:02.442Z,74.14
2022-10-22T07:03:28.863Z,75.58
2022-10-22T07:05:55.242Z,74.78
2022-10-22T07:08:21.593Z,74.11
2022-10-22T07:10:47.979Z,73.82
2022-10-22T07:13:14.346Z,74.48
2022-10-22T07:15:40.753Z,74.02
2022-10-22T07:18:07.094Z,73.98
2022-10-22T07:20:33.471Z,73.86
2022-10-22T07:22:59.817Z,74.95
2022-10-22T07:25:26.260Z,75.41
2022-10-22T07:27:52.615Z,75.94
2022-10-22T07:30:18.971Z,75.89
2022-10-22T07:32:45.330Z,76.47
2022-10-22T07:35:11.669Z,76.34
2022-10-22T07:37:38.205Z,75.35
2022-10-22T07:40:04.698Z,73.99
2022-10-22T07:42:31.065Z,74.00
2022-10-22T07:44:57.410Z,73.59
2022-10-22T07:47:23.773Z,74.16
2022-10-22T07:49:50.134Z,74.54
2022-10-22T07:52:16.467Z,75.82
2022-10-22T07:54:42.813Z,76.86
2022-10-22T07:57:09.163Z,76.69
2022-10-22T07:59:35.543Z,76.72
2022-10-22T08:02:01.902Z,76.48
2022-10-22T08:04:28.298Z,77.27
2022-10-22T08:06:54.680Z,76.56
2022-10-22T08:09:21.046Z,74.59
2022-10-22T08:11:47.387Z,76.55
2022-10-22T08:14:13.746Z,75.84
2022-10-22T08:16:40.095Z,74.80
2022-10-22T08:19:06.461Z,75.77
2022-10-22T08:21:32.829Z,75.81
2022-10-22T08:23:59.223Z,74.76
2022-10-22T08:26:25.633Z,74.58
2022-10-22T08:28:51.963Z,74.00
2022-10-22T08:31:18.319Z,76.31
2022-10-22T08:33:44.676Z,75.94
2022-10-22T08:36:11.061Z,74.19
2022-10-22T08:38:37.459Z,73.06
2022-10-22T08:41:03.804Z,73.49
2022-10-22T08:43:30.256Z,72.05
2022-10-22T08:45:56.591Z,72.25
2022-10-22T08:48:22.951Z,70.24
2022-10-22T08:50:49.297Z,69.54
2022-10-22T08:53:15.657Z,69.52
2022-10-22T08:55:42.007Z,66.38
2022-10-22T08:58:08.365Z,66.39
2022-10-22T09:00:34.727Z,67.34
2022-10-22T09:03:01.075Z,65.57
2022-10-22T09:05:27.428Z,67.36
2022-10-22T09:07:53.779Z,66.98
2022-10-22T09:10:20.149Z,67.17
2022-10-22T09:12:46.509Z,67.16
2022-10-22T09:15:12.882Z,68.02
2022-10-22T09:17:39.505Z,67.48
2022-10-22T09:20:06.157Z,65.41
2022-10-22T09:22:32.801Z,66.00
2022-10-22T09:24:59.176Z,65.98
2022-10-22T09:27:25.524Z,66.66
2022-10-22T09:29:51.879Z,65.41
2022-10-22T09:32:18.221Z,65.18
2022-10-22T09:34:44.555Z,66.30
2022-10-22T09:37:10.901Z,66.97
2022-10-22T09:39:37.259Z,65.55
2022-10-22T09:42:03.617Z,66.35
2022-10-22T09:44:29.967Z,65.05
2022-10-22T09:46:56.309Z,65.57
2022-10-22T09:49:22.657Z,64.04
2022-10-22T09:51:49.008Z,64.64
2022-10-22T09:54:15.354Z,64.04
2022-10-22T09:56:41.740Z,64.20
2022-10-22T09:59:08.115Z,63.64
2022-10-22T10:01:34.487Z,62.97
2022-10-22T10:04:00.881Z,62.67
2022-10-22T10:06:27.263Z,63.33
2022-10-22T10:08:53.680Z,63.18
2022-10-22T10:11:20.123Z,62.02
2022-10-22T10:13:46.892Z,63.51
2022-10-22T10:16:13.302Z,62.32
2022-10-22T10:18:39.640Z,59.69
2022-10-22T10:21:06.045Z,60.80
2022-10-22T10:23:32.427Z,60.53
2022-10-22T10:25:58.774Z,58.91
2022-10-22T10:28:25.129Z,58.84
2022-10-22T10:30:51.490Z,60.35
2022-10-22T10:33:17.835Z,58.83
2022-10-22T10:35:44.175Z,56.35
2022-10-22T10:38:10.584Z,55.31
2022-10-22T10:40:36.935Z,55.22
2022-10-22T10:43:03.312Z,54.76
2022-10-22T10:45:29.668Z,56.08
2022-10-22T10:47:56.017Z,56.69
2022-10-22T10:50:22.373Z,56.38
2022-10-22T10:52:48.731Z,55.35
2022-10-22T10:55:15.091Z,54.44
2022-10-22T10:57:41.648Z,54.03
2022-10-22T11:00:08.265Z,54.94
2022-10-22T11:02:34.614Z,55.58
2022-10-22T11:05:00.984Z,56.75
2022-10-22T11:07:34.573Z,56.03
2022-10-22T11:10:01.400Z,55.56
2022-10-22T11:12:27.770Z,54.75
2022-10-22T11:14:54.133Z,55.31
2022-10-22T11:17:20.498Z,52.48
2022-10-22T11:19:51.562Z,50.13
2022-10-22T11:22:19.396Z,52.60
2022-10-22T11:24:47.770Z,54.00
2022-10-22T11:27:14.118Z,49.85
2022-10-22T11:29:40.474Z,49.51
2022-10-22T11:32:06.852Z,50.40
2022-10-22T11:34:34.358Z,50.76
2022-10-22T11:37:01.020Z,50.55
2022-10-22T11:39:27.387Z,49.61
2022-10-22T11:41:53.728Z,50.86
2022-10-22T11:44:20.160Z,49.33
2022-10-22T11:46:46.546Z,50.18
2022-10-22T11:49:12.914Z,48.55
2022-10-22T11:51:39.298Z,48.01
2022-10-22T11:54:05.667Z,48.37
2022-10-22T11:56:32.029Z,47.47
2022-10-22T11:58:58.418Z,46.80
2022-10-22T12:01:24.848Z,44.88
2022-10-22T12:03:51.301Z,46.29
2022-10-22T12:06:17.687Z,45.20
2022-10-22T12:08:44.110Z,45.97
2022-10-22T12:11:10.503Z,46.44
2022-10-22T12:13:36.867Z,45.25
2022-10-22T12:16:03.239Z,45.94
2022-10-22T12:18:29.596Z,44.50
2022-10-22T12:20:55.941Z,44.37
2022-10-22T12:23:22.326Z,43.40
2022-10-22T12:25:48.686Z,44.67
2022-10-22T12:28:15.051Z,43.69
2022-10-22T12:30:41.403Z,42.09
2022-10-22T12:33:07.755Z,42.98
2022-10-22T12:35:34.106Z,43.11
2022-10-22T12:38:00.479Z,41.58
2022-10-22T12:40:26.819Z,41.57
2022-10-22T12:42:53.178Z,43.88
2022-10-22T12:45:19.517Z,44.35
2022-10-22T12:47:45.867Z,42.85
2022-10-22T12:50:12.235Z,44.17
2022-10-22T12:52:38.790Z,47.67
2022-10-22T12:55:05.291Z,47.51
2022-10-22T12:57:31.642Z,47.81
2022-10-22T12:59:58.040Z,46.55
2022-10-22T13:02:24.452Z,44.95
2022-10-22T13:04:50.921Z,45.65
2022-10-22T13:07:19.790Z,45.32
2022-10-22T13:09:47.595Z,43.75
2022-10-22T13:12:13.952Z,42.43
2022-10-22T13:14:40.301Z,41.24
2022-10-22T13:17:06.641Z,42.59
2022-10-22T13:19:33.000Z,43.76
2022-10-22T13:21:59.347Z,44.33
2022-10-22T13:24:25.683Z,42.87
2022-10-22T13:26:52.059Z,43.35
2022-10-22T13:29:18.400Z,43.05
2022-10-22T13:31:44.760Z,43.50
2022-10-22T13:34:13.015Z,44.44
2022-10-22T13:36:41.503Z,43.92
2022-10-22T13:39:07.871Z,43.17
2022-10-22T13:41:34.297Z,43.30
2022-10-22T13:44:00.652Z,43.19
2022-10-22T13:46:26.991Z,42.24
2022-10-22T13:48:53.343Z,41.07
2022-10-22T13:51:19.689Z,39.56
2022-10-22T13:53:46.053Z,40.63
2022-10-22T13:56:12.404Z,39.69
2022-10-22T13:58:40.147Z,41.66
2022-10-22T14:01:06.569Z,42.63
2022-10-22T14:03:32.940Z,42.77
2022-10-22T14:05:59.540Z,41.42
2022-10-22T14:08:25.890Z,41.41
2022-10-22T14:10:52.291Z,42.86
2022-10-22T14:13:18.662Z,41.39
2022-10-22T14:15:45.025Z,38.91
2022-10-22T14:18:11.382Z,37.54
2022-10-22T14:20:37.739Z,38.08
2022-10-22T14:23:04.116Z,36.86
2022-10-22T14:25:30.493Z,37.27
2022-10-22T14:27:56.858Z,34.54
2022-10-22T14:30:23.211Z,34.03
2022-10-22T14:32:49.591Z,32.84
2022-10-22T14:35:15.944Z,32.70
2022-10-22T14:37:42.295Z,31.73
2022-10-22T14:40:08.651Z,30.31
2022-10-22T14:42:35.030Z,30.53
2022-10-22T14:45:01.415Z,30.26
2022-10-22T14:47:27.791Z,30.94
2022-10-22T14:49:54.152Z,28.83
2022-10-22T14:52:20.510Z,28.58
2022-10-22T14:54:46.874Z,26.37
2022-10-22T14:57:13.217Z,26.14
2022-10-22T14:59:39.610Z,26.29
2022-10-22T15:02:05.973Z,25.80
2022-10-22T15:04:32.315Z,27.07
2022-10-22T15:06:58.683Z,27.71
2022-10-22T15:09:25.024Z,26.30
2022-10-22T15:11:51.368Z,25.84
2022-10-22T15:14:17.718Z,26.32
2022-10-22T15:16:44.085Z,27.17
2022-10-22T15:19:10.428Z,27.28
2022-10-22T15:21:36.826Z,27.95
2022-10-22T15:24:03.212Z,27.90
2022-10-22T15:26:29.571Z,26.99
2022-10-22T15:28:55.910Z,27.96
2022-10-22T15:31:22.307Z,28.19
2022-10-22T15:33:48.676Z,29.77
2022-10-22T15:36:15.035Z,29.46
2022-10-22T15:38:41.393Z,30.15
2022-10-22T15:41:07.735Z,32.44
2022-10-22T15:43:34.091Z,34.36
2022-10-22T15:46:00.459Z,36.81
2022-10-22T15:48:26.800Z,39.00
2022-10-22T15:50:53.150Z,41.94
2022-10-22T15:53:19.499Z,43.98
2022-10-22T15:55:45.852Z,45.13
2022-10-22T15:58:12.191Z,44.57
2022-10-22T16:00:38.602Z,44.58
2022-10-22T16:03:05.033Z,40.89
2022-10-22T16:05:31.413Z,41.14
2022-10-22T16:07:57.807Z,41.66
2022-10-22T16:10:24.246Z,39.24
2022-10-22T16:12:50.630Z,39.42
2022-10-22T16:15:16.974Z,41.11
2022-10-22T16:17:43.327Z,42.93
2022-10-22T16:20:09.736Z,43.04
2022-10-22T16:22:36.124Z,44.40
2022-10-22T16:25:02.462Z,45.87
2022-10-22T16:27:28.809Z,47.03
2022-10-22T16:29:55.278Z,47.44
2022-10-22T16:32:21.699Z,48.34
2022-10-22T16:34:48.070Z,49.78
2022-10-22T16:37:14.415Z,49.92
2022-10-22T16:39:40.791Z,50.85
2022-10-22T16:42:07.129Z,50.67
2022-10-22T16:44:33.525Z,50.63
2022-10-22T16:46:59.875Z,51.22
2022-10-22T16:49:26.237Z,51.60
2022-10-22T16:51:52.597Z,51.68
2022-10-22T16:54:18.937Z,51.11
2022-10-22T16:56:45.304Z,50.93
2022-10-22T16:59:11.640Z,51.09
2022-10-22T17:01:41.022Z,51.24
2022-10-22T17:04:07.788Z,51.44
2022-10-22T17:06:34.146Z,51.24
2022-10-22T17:09:00.597Z,51.74
2022-10-22T17:11:27.003Z,51.97
2022-10-22T17:13:53.355Z,52.49
2022-10-22T17:16:19.696Z,52.55
2022-10-22T17:21:17.300Z,51.99
2022-10-22T17:23:43.677Z,51.55
2022-10-22T17:26:10.025Z,52.22
2022-10-22T17:28:36.432Z,51.97
2022-10-22T17:31:02.778Z,52.01
2022-10-22T17:33:29.132Z,52.78
2022-10-22T17:35:55.493Z,52.47
2022-10-22T17:38:21.837Z,52.35
2022-10-22T17:40:48.195Z,52.41
2022-10-22T17:43:14.566Z,53.72
2022-10-22T17:45:40.953Z,54.21
2022-10-22T17:48:07.302Z,54.45
2022-10-22T17:50:33.674Z,55.50
2022-10-22T17:53:00.045Z,55.20
2022-10-22T17:55:26.424Z,54.90
2022-10-22T17:57:52.794Z,54.96
2022-10-22T18:02:46.426Z,54.65
2022-10-22T18:05:12.785Z,54.08
2022-10-22T18:07:39.140Z,54.47
2022-10-22T18:10:05.505Z,54.72
2022-10-22T18:12:31.865Z,54.72
2022-10-22T18:14:58.217Z,55.71
2022-10-22T18:17:24.594Z,55.85
2022-10-22T18:19:50.967Z,56.33
2022-10-22T18:22:17.342Z,56.12
2022-10-22T18:24:43.699Z,55.48
2022-10-22T18:27:10.058Z,55.22
2022-10-22T18:29:36.409Z,56.12
2022-10-22T18:32:02.770Z,55.44
2022-10-22T18:34:29.139Z,55.88
2022-10-22T18:36:55.541Z,56.03
2022-10-22T18:39:21.939Z,56.15
2022-10-22T18:41:48.374Z,56.15
2022-10-22T18:44:14.732Z,56.28
2022-10-22T18:46:41.095Z,55.99
2022-10-22T18:49:07.449Z,55.83
2022-10-22T18:51:33.813Z,55.90
2022-10-22T18:54:06.028Z,56.27
2022-10-22T18:56:44.472Z,55.76
2022-10-22T18:59:10.836Z,55.78
2022-10-22T19:01:37.240Z,55.88
2022-10-22T19:04:03.640Z,56.35
2022-10-22T19:06:33.208Z,55.93
2022-10-22T19:09:02.236Z,55.62
2022-10-22T19:11:28.641Z,55.99
2022-10-22T19:13:54.995Z,56.28
2022-10-22T19:16:21.356Z,55.75
2022-10-22T19:18:47.701Z,56.10
2022-10-22T19:21:14.063Z,56.56
2022-10-22T19:23:40.440Z,56.27
2022-10-22T19:26:06.865Z,55.77
2022-10-22T19:28:33.204Z,56.36
2022-10-22T19:30:59.559Z,54.84
2022-10-22T19:33:25.914Z,55.34
2022-10-22T19:35:52.279Z,56.52
2022-10-22T19:38:18.645Z,56.53
2022-10-22T19:40:44.989Z,56.43
2022-10-22T19:43:12.304Z,56.43
2022-10-22T19:45:39.215Z,56.05
2022-10-22T19:48:05.593Z,56.78
2022-10-22T19:50:31.943Z,56.63
2022-10-22T19:52:58.308Z,56.68
2022-10-22T19:55:24.663Z,57.40
2022-10-22T19:57:51.015Z,57.14
2022-10-22T20:00:17.381Z,56.74
2022-10-22T20:02:43.732Z,57.01
2022-10-22T20:05:10.136Z,57.12
2022-10-22T20:07:36.513Z,57.07
2022-10-22T20:10:02.868Z,57.32
2022-10-22T20:12:29.237Z,57.06
2022-10-22T20:14:55.588Z,57.13
2022-10-22T20:17:21.945Z,57.15
2022-10-22T20:19:48.298Z,57.25
2022-10-22T20:22:17.799Z,56.92
2022-10-22T20:24:45.198Z,57.21
2022-10-22T20:27:11.573Z,57.58
2022-10-22T20:29:37.945Z,57.72
2022-10-22T20:32:06.679Z,57.75
2022-10-22T20:34:35.113Z,57.51
2022-10-22T20:37:01.477Z,56.81
2022-10-22T20:39:27.845Z,57.99
2022-10-22T20:41:54.197Z,58.36
2022-10-22T20:44:20.541Z,58.59
2022-10-22T20:46:46.959Z,58.86
2022-10-22T20:49:13.375Z,59.24
2022-10-22T20:51:39.732Z,59.58
2022-10-22T20:54:06.098Z,59.65
2022-10-22T20:56:32.455Z,59.99
2022-10-22T20:58:58.807Z,58.98
2022-10-22T21:01:25.274Z,58.60
2022-10-22T21:03:51.658Z,59.00
2022-10-22T21:06:18.022Z,59.13
2022-10-22T21:08:44.422Z,59.17
2022-10-22T21:11:10.801Z,58.88
2022-10-22T21:13:37.170Z,59.06
2022-10-22T21:16:03.526Z,58.98
2022-10-22T21:18:29.906Z,59.55
2022-10-22T21:20:56.255Z,60.12
2022-10-22T21:23:22.604Z,60.28
2022-10-22T21:25:48.977Z,60.38
2022-10-22T21:28:15.327Z,60.60
2022-10-22T21:30:41.698Z,60.15
2022-10-22T21:33:08.068Z,59.97
2022-10-22T21:35:34.427Z,60.04
2022-10-22T21:38:00.782Z,60.06
2022-10-22T21:40:27.166Z,58.82
2022-10-22T21:42:53.500Z,58.28
2022-10-22T21:45:22.315Z,58.75
2022-10-22T21:47:48.938Z,59.39
2022-10-22T21:50:15.302Z,60.00
2022-10-22T21:52:41.683Z,59.63
2022-10-22T21:55:08.028Z,59.49
2022-10-22T21:57:34.404Z,58.54
2022-10-22T22:00:00.749Z,57.69
2022-10-22T22:02:27.122Z,58.04
2022-10-22T22:04:53.468Z,58.47
2022-10-22T22:07:19.834Z,58.15
2022-10-22T22:09:46.175Z,58.91
2022-10-22T22:12:12.513Z,59.27
2022-10-22T22:14:38.880Z,59.23
2022-10-22T22:17:05.365Z,59.62
2022-10-22T22:19:31.746Z,60.00
2022-10-22T22:21:58.083Z,59.43
2022-10-22T22:24:24.451Z,59.89
2022-10-22T22:26:52.256Z,59.41
2022-10-22T22:29:18.629Z,59.95
2022-10-22T22:31:44.987Z,59.88
2022-10-22T22:34:11.331Z,59.43
2022-10-22T22:36:37.706Z,59.61
2022-10-22T22:39:04.072Z,59.69
2022-10-22T22:41:30.428Z,59.85
2022-10-22T22:43:56.805Z,60.27
2022-10-22T22:46:23.171Z,60.18
2022-10-22T22:48:49.523Z,60.75
2022-10-22T22:51:15.856Z,60.45
2022-10-22T22:53:42.203Z,60.80
2022-10-22T22:56:08.547Z,61.15
2022-10-22T22:58:34.893Z,61.08
2022-10-22T23:01:01.263Z,61.62
2022-10-22T23:03:27.624Z,61.83
2022-10-22T23:05:53.991Z,61.79
2022-10-22T23:08:20.335Z,61.21
2022-10-22T23:10:46.682Z,61.02
2022-10-22T23:13:13.032Z,61.44
2022-10-22T23:15:39.391Z,60.88
2022-10-22T23:18:05.761Z,60.14
2022-10-22T23:20:32.135Z,60.65
2022-10-22T23:22:58.529Z,60.85
2022-10-22T23:25:24.883Z,60.19
2022-10-22T23:27:51.274Z,60.46
2022-10-22T23:30:17.625Z,60.82
2022-10-22T23:32:43.997Z,60.40
2022-10-22T23:35:10.370Z,60.56
2022-10-22T23:37:36.721Z,61.03
2022-10-22T23:40:03.094Z,61.14
2022-10-22T23:42:29.484Z,61.00
2022-10-22T23:44:55.880Z,61.00
2022-10-22T23:47:22.218Z,61.14
2022-10-22T23:49:48.566Z,61.36
2022-10-22T23:52:14.921Z,61.57
2022-10-22T23:54:41.270Z,62.66
2022-10-22T23:57:07.645Z,63.07
2022-10-22T23:59:34.002Z,63.15
